Time;durP1;ratioP1;P1;durP2;ratioP2;P2;SDS_P1;SDS_P2;PMS_P1;PMS_P2;Temp;Humidity;BMP_temperature;BMP_pressure;BME280_temperature;BME280_humidity;BME280_pressure;Samples;Min_cycle;Max_cycle;Signal;HPM_P1;HPM_P2
2021/11/26 00:01:03;;;;;;;3.33;2.22;;;;;;;;;;6133430;23;20012;-74
2021/11/26 00:03:30;;;;;;;6.00;2.47;;;;;;;;;;6176603;23;20063;-74
2021/11/26 00:05:56;;;;;;;10.18;2.45;;;;;;;;;;6176311;23;20675;-74
2021/11/26 00:08:23;;;;;;;6.05;2.30;;;;;;;;;;6172519;23;20398;-74
2021/11/26 00:10:49;;;;;;;8.10;2.97;;;;;;;;;;6158232;23;20503;-74
2021/11/26 00:13:15;;;;;;;4.30;2.22;;;;;;;;;;6176932;23;20080;-74
2021/11/26 00:15:42;;;;;;;4.85;2.47;;;;;;;;;;6175088;23;20088;-74
2021/11/26 00:18:16;;;;;;;8.63;3.35;;;;;;;;;;6176156;23;19997;-74
2021/11/26 00:20:42;;;;;;;6.70;2.70;;;;;;;;;;6154263;23;20009;-74
2021/11/26 00:23:08;;;;;;;4.45;2.83;;;;;;;;;;6175907;23;20020;-74
2021/11/26 00:25:34;;;;;;;4.28;2.45;;;;;;;;;;6149352;23;20008;-74
2021/11/26 00:28:01;;;;;;;3.20;2.38;;;;;;;;;;6176213;23;20600;-74
2021/11/26 00:30:27;;;;;;;4.63;2.30;;;;;;;;;;6155861;23;20005;-74
2021/11/26 00:32:53;;;;;;;3.63;2.42;;;;;;;;;;6174265;23;20072;-75
2021/11/26 00:35:20;;;;;;;4.88;2.72;;;;;;;;;;6175598;23;20623;-74
2021/11/26 00:37:46;;;;;;;6.03;2.88;;;;;;;;;;6175688;23;20078;-72
2021/11/26 00:40:13;;;;;;;4.75;2.78;;;;;;;;;;6155479;23;20048;-73
2021/11/26 00:42:39;;;;;;;5.30;3.10;;;;;;;;;;6144313;23;20008;-74
2021/11/26 00:45:06;;;;;;;4.25;2.30;;;;;;;;;;6167325;23;20015;-73
2021/11/26 00:47:32;;;;;;;4.72;2.67;;;;;;;;;;6170268;23;20005;-74
2021/11/26 00:49:58;;;;;;;6.68;2.70;;;;;;;;;;6150136;23;20007;-74
2021/11/26 00:52:24;;;;;;;5.40;2.50;;;;;;;;;;6142297;23;20400;-73
2021/11/26 00:54:50;;;;;;;10.07;3.05;;;;;;;;;;6169875;23;20009;-73
2021/11/26 00:57:16;;;;;;;6.38;2.58;;;;;;;;;;6168274;23;20001;-73
2021/11/26 00:59:43;;;;;;;4.35;2.35;;;;;;;;;;6152253;23;20630;-74
2021/11/26 01:02:09;;;;;;;3.42;2.30;;;;;;;;;;6169680;23;20059;-74
2021/11/26 01:04:35;;;;;;;4.93;2.33;;;;;;;;;;6167352;23;20097;-74
2021/11/26 01:07:02;;;;;;;5.25;2.25;;;;;;;;;;6170225;23;20061;-73
2021/11/26 01:09:28;;;;;;;4.90;2.58;;;;;;;;;;6155158;23;20012;-74
2021/11/26 01:11:54;;;;;;;5.40;2.97;;;;;;;;;;6163291;23;20015;-73
2021/11/26 01:14:22;;;;;;;5.80;2.72;;;;;;;;;;6167884;23;20001;-73
2021/11/26 01:16:48;;;;;;;4.40;2.60;;;;;;;;;;6169913;23;20004;-73
2021/11/26 01:19:15;;;;;;;3.85;2.50;;;;;;;;;;6162039;23;20051;-73
2021/11/26 01:21:41;;;;;;;7.57;2.55;;;;;;;;;;6131628;23;20017;-73
2021/11/26 01:24:07;;;;;;;4.72;2.47;;;;;;;;;;6169818;23;20008;-73
2021/11/26 01:26:33;;;;;;;2.83;2.30;;;;;;;;;;6169885;23;20009;-74
2021/11/26 01:28:59;;;;;;;3.90;2.40;;;;;;;;;;6159229;23;20001;-74
2021/11/26 01:31:25;;;;;;;3.95;2.47;;;;;;;;;;6157923;23;20055;-74
2021/11/26 01:33:54;;;;;;;6.97;2.45;;;;;;;;;;6169401;23;20025;-74
2021/11/26 01:36:20;;;;;;;3.65;2.00;;;;;;;;;;6169657;23;20001;-74
2021/11/26 01:38:46;;;;;;;2.72;1.95;;;;;;;;;;6135626;23;20019;-74
2021/11/26 01:41:13;;;;;;;4.07;1.83;;;;;;;;;;6155625;23;20013;-74
2021/11/26 01:43:39;;;;;;;4.55;2.20;;;;;;;;;;6142155;23;20068;-73
2021/11/26 01:46:09;;;;;;;3.28;2.22;;;;;;;;;;6169088;23;20438;-74
2021/11/26 01:48:39;;;;;;;4.60;2.05;;;;;;;;;;6159883;23;19998;-74
2021/11/26 01:51:06;;;;;;;2.80;1.75;;;;;;;;;;6158303;23;20422;-73
2021/11/26 01:53:32;;;;;;;2.85;1.42;;;;;;;;;;6169538;23;20007;-73
2021/11/26 01:55:59;;;;;;;6.22;1.83;;;;;;;;;;6167604;23;20085;-74
2021/11/26 01:58:25;;;;;;;4.88;1.67;;;;;;;;;;6165676;23;20009;-73
2021/11/26 02:00:52;;;;;;;4.60;1.80;;;;;;;;;;6151955;23;20013;-74
2021/11/26 02:03:18;;;;;;;4.05;1.60;;;;;;;;;;6170055;23;20044;-74
2021/11/26 02:05:44;;;;;;;2.15;1.58;;;;;;;;;;6169420;23;20005;-74
2021/11/26 02:08:10;;;;;;;3.17;1.83;;;;;;;;;;6143264;23;20009;-73
2021/11/26 02:10:38;;;;;;;2.85;1.95;;;;;;;;;;6148052;23;20005;-73
2021/11/26 02:13:04;;;;;;;3.38;1.88;;;;;;;;;;6169623;23;20322;-74
2021/11/26 02:15:30;;;;;;;5.55;2.50;;;;;;;;;;6170045;23;20509;-73
2021/11/26 02:17:57;;;;;;;3.70;2.28;;;;;;;;;;6142954;23;20307;-74
2021/11/26 02:20:24;;;;;;;4.22;1.90;;;;;;;;;;6151118;23;20060;-73
2021/11/26 02:22:51;;;;;;;5.13;2.67;;;;;;;;;;6145473;23;19998;-73
2021/11/26 02:25:17;;;;;;;4.85;2.30;;;;;;;;;;6144888;23;20005;-74
2021/11/26 02:27:47;;;;;;;4.28;2.70;;;;;;;;;;6169621;23;19997;-73
2021/11/26 02:30:17;;;;;;;4.25;2.10;;;;;;;;;;6149976;23;20465;-73
2021/11/26 02:32:46;;;;;;;2.55;1.83;;;;;;;;;;6172141;23;20131;-73
2021/11/26 02:35:13;;;;;;;3.45;1.58;;;;;;;;;;6171747;23;20075;-74
2021/11/26 02:37:40;;;;;;;1.88;1.20;;;;;;;;;;6169756;23;20005;-74
2021/11/26 02:40:06;;;;;;;2.10;1.50;;;;;;;;;;6164776;23;20009;-73
2021/11/26 02:42:33;;;;;;;2.30;1.27;;;;;;;;;;6151677;23;20001;-74
2021/11/26 02:44:59;;;;;;;1.80;1.00;;;;;;;;;;6172323;23;20009;-74
2021/11/26 02:47:25;;;;;;;2.33;1.10;;;;;;;;;;6165192;23;20001;-74
2021/11/26 02:49:52;;;;;;;4.30;1.45;;;;;;;;;;6136655;23;20098;-74
2021/11/26 02:52:18;;;;;;;1.17;0.60;;;;;;;;;;6139959;23;20005;-74
2021/11/26 02:54:44;;;;;;;1.85;0.90;;;;;;;;;;6169406;23;20001;-74
2021/11/26 02:57:10;;;;;;;3.70;0.77;;;;;;;;;;6171932;23;20456;-73
2021/11/26 02:59:36;;;;;;;1.40;0.80;;;;;;;;;;6162716;23;20033;-73
2021/11/26 03:02:02;;;;;;;2.97;1.08;;;;;;;;;;6172231;23;20015;-74
2021/11/26 03:04:28;;;;;;;2.00;1.25;;;;;;;;;;6174362;23;20005;-74
2021/11/26 03:07:02;;;;;;;2.67;1.00;;;;;;;;;;6174307;23;20009;-74
2021/11/26 03:09:28;;;;;;;1.85;1.08;;;;;;;;;;6174449;23;20012;-74
2021/11/26 03:11:54;;;;;;;2.20;1.13;;;;;;;;;;6174168;23;20001;-74
2021/11/26 03:14:20;;;;;;;3.35;1.08;;;;;;;;;;6176206;23;20422;-74
2021/11/26 03:16:47;;;;;;;2.58;0.95;;;;;;;;;;6175393;23;20005;-74
2021/11/26 03:19:13;;;;;;;5.13;1.10;;;;;;;;;;6175478;23;20009;-74
2021/11/26 03:21:40;;;;;;;2.80;1.15;;;;;;;;;;6175847;23;20100;-73
2021/11/26 03:24:09;;;;;;;2.72;1.15;;;;;;;;;;6175582;23;20596;-74
2021/11/26 03:26:35;;;;;;;2.72;1.60;;;;;;;;;;6146697;23;20141;-74
2021/11/26 03:29:01;;;;;;;5.20;1.40;;;;;;;;;;6175322;23;20016;-74
2021/11/26 03:31:28;;;;;;;3.97;1.30;;;;;;;;;;6175789;23;20001;-74
2021/11/26 03:33:54;;;;;;;1.77;1.27;;;;;;;;;;6171840;23;20017;-74
2021/11/26 03:36:22;;;;;;;2.25;1.17;;;;;;;;;;6160452;23;20008;-73
2021/11/26 03:38:48;;;;;;;2.42;1.20;;;;;;;;;;6155474;23;20009;-73
2021/11/26 03:41:14;;;;;;;2.55;1.25;;;;;;;;;;6158883;23;20013;-73
2021/11/26 03:43:40;;;;;;;2.00;0.90;;;;;;;;;;6159288;23;20063;-73
2021/11/26 03:46:06;;;;;;;1.73;1.13;;;;;;;;;;6159339;23;20005;-73
2021/11/26 03:48:32;;;;;;;1.52;0.80;;;;;;;;;;6175230;23;20001;-73
2021/11/26 03:50:58;;;;;;;2.65;0.90;;;;;;;;;;6169795;23;20005;-73
2021/11/26 03:53:25;;;;;;;4.80;1.67;;;;;;;;;;6169550;23;20062;-73
2021/11/26 03:55:51;;;;;;;1.75;1.00;;;;;;;;;;6146239;23;20039;-73
2021/11/26 03:58:17;;;;;;;2.13;0.90;;;;;;;;;;6173578;23;20005;-73
2021/11/26 04:00:43;;;;;;;2.10;1.10;;;;;;;;;;6175377;23;20120;-73
2021/11/26 04:03:09;;;;;;;1.88;0.90;;;;;;;;;;6171081;23;20038;-73
2021/11/26 04:05:35;;;;;;;3.20;1.65;;;;;;;;;;6167513;23;20032;-73
2021/11/26 04:08:02;;;;;;;1.50;0.90;;;;;;;;;;6169124;23;20009;-73
2021/11/26 04:10:29;;;;;;;3.13;1.33;;;;;;;;;;6167006;23;20528;-73
2021/11/26 04:12:55;;;;;;;2.75;0.98;;;;;;;;;;6169388;23;20072;-73
2021/11/26 04:15:22;;;;;;;1.42;0.90;;;;;;;;;;6169772;23;20032;-73
2021/11/26 04:17:50;;;;;;;1.85;1.20;;;;;;;;;;6169107;23;20329;-73
2021/11/26 04:20:17;;;;;;;1.60;0.80;;;;;;;;;;6167844;23;20315;-73
2021/11/26 04:22:44;;;;;;;2.83;1.08;;;;;;;;;;6143174;23;20009;-73
2021/11/26 04:25:11;;;;;;;4.97;1.02;;;;;;;;;;6169617;23;20016;-73
2021/11/26 04:27:37;;;;;;;1.42;0.90;;;;;;;;;;6168891;23;20005;-73
2021/11/26 04:30:05;;;;;;;4.32;1.23;;;;;;;;;;6142662;23;20678;-73
2021/11/26 04:32:31;;;;;;;2.28;1.00;;;;;;;;;;6168478;23;20005;-73
2021/11/26 04:34:58;;;;;;;2.05;1.35;;;;;;;;;;6168797;23;20445;-73
2021/11/26 04:37:24;;;;;;;4.07;0.90;;;;;;;;;;6169184;23;19997;-73
2021/11/26 04:39:51;;;;;;;2.15;1.00;;;;;;;;;;6169007;23;20553;-73
2021/11/26 04:42:17;;;;;;;2.30;1.10;;;;;;;;;;6170263;23;20019;-73
2021/11/26 04:44:43;;;;;;;2.78;1.30;;;;;;;;;;6169783;23;20333;-73
2021/11/26 04:47:09;;;;;;;3.55;1.00;;;;;;;;;;6171683;23;20005;-73
2021/11/26 04:49:35;;;;;;;2.38;1.10;;;;;;;;;;6172106;23;20011;-73
2021/11/26 04:52:01;;;;;;;5.22;1.23;;;;;;;;;;6169882;23;20001;-73
2021/11/26 04:54:28;;;;;;;4.35;1.17;;;;;;;;;;6171380;23;20005;-73
2021/11/26 04:56:56;;;;;;;1.80;0.90;;;;;;;;;;6172365;23;20080;-72
2021/11/26 04:59:22;;;;;;;2.05;0.90;;;;;;;;;;6171999;23;20454;-73
2021/11/26 05:01:48;;;;;;;3.40;1.10;;;;;;;;;;6171362;23;20001;-73
2021/11/26 05:04:14;;;;;;;4.82;0.85;;;;;;;;;;6169467;23;20011;-73
2021/11/26 05:06:40;;;;;;;3.58;1.20;;;;;;;;;;6171636;23;19997;-72
2021/11/26 05:09:08;;;;;;;4.28;0.90;;;;;;;;;;6171854;23;20016;-72
2021/11/26 05:11:35;;;;;;;5.20;1.27;;;;;;;;;;6171849;23;20063;-73
2021/11/26 05:14:05;;;;;;;1.92;1.10;;;;;;;;;;6171651;23;20001;-73
2021/11/26 05:16:31;;;;;;;3.03;1.00;;;;;;;;;;6167931;23;20064;-73
2021/11/26 05:18:57;;;;;;;1.30;0.80;;;;;;;;;;6171602;23;20588;-73
2021/11/26 05:21:23;;;;;;;2.20;1.27;;;;;;;;;;6171077;23;20016;-73
2021/11/26 05:23:50;;;;;;;3.28;1.17;;;;;;;;;;6171587;23;20450;-74
2021/11/26 05:26:17;;;;;;;3.67;1.30;;;;;;;;;;6170017;23;20473;-74
2021/11/26 05:28:43;;;;;;;2.95;1.10;;;;;;;;;;6171950;23;20457;-73
2021/11/26 05:31:09;;;;;;;3.35;1.00;;;;;;;;;;6171315;23;20068;-72
2021/11/26 05:33:37;;;;;;;3.30;1.40;;;;;;;;;;6171105;23;20359;-73
2021/11/26 05:36:03;;;;;;;1.63;1.13;;;;;;;;;;6169363;23;20322;-73
2021/11/26 05:38:29;;;;;;;0.88;0.70;;;;;;;;;;6171374;23;20080;-73
2021/11/26 05:40:56;;;;;;;1.50;0.75;;;;;;;;;;6171423;23;20017;-73
2021/11/26 05:43:22;;;;;;;1.10;0.60;;;;;;;;;;6171709;23;20070;-73
2021/11/26 05:45:48;;;;;;;2.13;0.70;;;;;;;;;;6169179;23;20008;-73
2021/11/26 05:48:14;;;;;;;2.20;1.00;;;;;;;;;;6144689;23;20365;-73
2021/11/26 05:50:40;;;;;;;1.92;0.80;;;;;;;;;;6172208;23;20050;-73
2021/11/26 05:53:06;;;;;;;0.82;0.60;;;;;;;;;;6145489;23;20185;-73
2021/11/26 05:55:32;;;;;;;2.83;0.73;;;;;;;;;;6169828;23;20005;-72
2021/11/26 05:57:59;;;;;;;2.63;0.95;;;;;;;;;;6170894;23;20005;-74
2021/11/26 06:00:26;;;;;;;3.13;1.02;;;;;;;;;;6170544;23;20020;-73
2021/11/26 06:02:53;;;;;;;1.25;0.73;;;;;;;;;;6168726;23;20032;-73
2021/11/26 06:05:19;;;;;;;1.63;0.90;;;;;;;;;;6170444;23;20315;-74
2021/11/26 06:07:45;;;;;;;3.10;0.90;;;;;;;;;;6168454;23;20008;-74
2021/11/26 06:10:12;;;;;;;3.80;1.00;;;;;;;;;;6170420;23;20013;-73
2021/11/26 06:12:39;;;;;;;2.22;1.10;;;;;;;;;;6170977;23;20016;-74
2021/11/26 06:15:06;;;;;;;2.70;0.75;;;;;;;;;;6168835;23;20005;-74
2021/11/26 06:17:32;;;;;;;3.08;1.02;;;;;;;;;;6170260;23;20087;-73
2021/11/26 06:19:58;;;;;;;2.05;1.13;;;;;;;;;;6170555;23;20407;-73
2021/11/26 06:22:24;;;;;;;3.50;1.13;;;;;;;;;;6170691;23;20001;-73
2021/11/26 06:24:50;;;;;;;3.05;1.40;;;;;;;;;;6168639;23;20067;-74
2021/11/26 06:27:17;;;;;;;5.93;1.30;;;;;;;;;;6170347;23;20122;-74
2021/11/26 06:29:43;;;;;;;5.50;1.65;;;;;;;;;;6169590;23;20334;-73
2021/11/26 06:32:09;;;;;;;5.20;1.38;;;;;;;;;;6168761;23;20005;-74
2021/11/26 06:34:35;;;;;;;3.25;0.98;;;;;;;;;;6167455;23;20048;-74
2021/11/26 06:37:01;;;;;;;2.80;1.15;;;;;;;;;;6170378;23;20013;-74
2021/11/26 06:39:28;;;;;;;1.92;1.45;;;;;;;;;;6170140;23;20005;-74
2021/11/26 06:41:54;;;;;;;2.95;1.75;;;;;;;;;;6169589;23;20027;-73
2021/11/26 06:44:20;;;;;;;8.05;1.23;;;;;;;;;;6169791;23;20032;-74
2021/11/26 06:46:46;;;;;;;4.30;1.40;;;;;;;;;;6169009;23;20067;-74
2021/11/26 06:49:12;;;;;;;4.13;1.33;;;;;;;;;;6169754;23;20009;-74
2021/11/26 06:51:39;;;;;;;4.57;1.52;;;;;;;;;;6170481;23;20389;-74
2021/11/26 06:54:05;;;;;;;2.80;1.42;;;;;;;;;;6170138;23;20029;-74
2021/11/26 06:56:31;;;;;;;2.65;1.05;;;;;;;;;;6142349;23;20067;-74
2021/11/26 06:59:00;;;;;;;4.53;1.35;;;;;;;;;;6143719;23;19997;-73
2021/11/26 07:01:26;;;;;;;5.50;2.00;;;;;;;;;;6169058;23;20017;-74
2021/11/26 07:03:54;;;;;;;5.90;1.80;;;;;;;;;;6169832;23;20016;-74
2021/11/26 07:06:20;;;;;;;5.13;1.42;;;;;;;;;;6169376;23;20009;-74
2021/11/26 07:08:46;;;;;;;2.35;1.20;;;;;;;;;;6168052;23;20005;-74
2021/11/26 07:11:13;;;;;;;4.85;1.38;;;;;;;;;;6167952;23;20040;-74
2021/11/26 07:13:39;;;;;;;3.88;1.50;;;;;;;;;;6169850;23;20496;-76
2021/11/26 07:16:05;;;;;;;7.72;2.03;;;;;;;;;;6169786;23;20329;-74
2021/11/26 07:18:31;;;;;;;5.57;1.70;;;;;;;;;;6167128;23;20004;-74
2021/11/26 07:20:57;;;;;;;4.00;1.88;;;;;;;;;;6168861;23;20013;-73
2021/11/26 07:23:24;;;;;;;7.20;1.83;;;;;;;;;;6166159;23;20072;-74
2021/11/26 07:25:50;;;;;;;4.03;1.73;;;;;;;;;;6168363;23;20353;-73
2021/11/26 07:28:16;;;;;;;4.10;2.00;;;;;;;;;;6169187;23;20009;-73
2021/11/26 07:30:42;;;;;;;4.78;1.80;;;;;;;;;;6168998;23;20019;-73
2021/11/26 07:33:08;;;;;;;5.43;1.55;;;;;;;;;;6167632;23;20008;-74
2021/11/26 07:35:35;;;;;;;3.72;1.70;;;;;;;;;;6168402;23;20024;-74
2021/11/26 07:38:01;;;;;;;4.82;1.80;;;;;;;;;;6169721;23;20084;-73
2021/11/26 07:40:28;;;;;;;3.75;1.77;;;;;;;;;;6168984;23;20585;-74
2021/11/26 07:42:54;;;;;;;2.88;1.75;;;;;;;;;;6166963;23;20005;-74
2021/11/26 07:45:20;;;;;;;4.57;2.03;;;;;;;;;;6168342;23;20009;-74
2021/11/26 07:47:46;;;;;;;5.63;1.85;;;;;;;;;;6169137;23;20354;-73
2021/11/26 07:50:13;;;;;;;4.70;1.60;;;;;;;;;;6169364;23;20032;-72
2021/11/26 07:52:41;;;;;;;4.15;2.13;;;;;;;;;;6171058;23;20001;-73
2021/11/26 07:55:07;;;;;;;3.63;1.83;;;;;;;;;;6171273;23;20088;-71
2021/11/26 07:57:35;;;;;;;4.90;2.28;;;;;;;;;;6169691;23;20001;-71
2021/11/26 08:00:02;;;;;;;4.53;1.80;;;;;;;;;;6171004;23;20005;-73
2021/11/26 08:02:28;;;;;;;3.88;1.60;;;;;;;;;;6144554;23;20091;-73
2021/11/26 08:04:54;;;;;;;8.70;2.25;;;;;;;;;;6171066;23;20452;-72
2021/11/26 08:07:20;;;;;;;6.70;1.95;;;;;;;;;;6169309;23;19997;-74
2021/11/26 08:09:46;;;;;;;4.18;2.05;;;;;;;;;;6170865;23;19997;-71
2021/11/26 08:12:12;;;;;;;2.55;1.58;;;;;;;;;;6170553;23;20011;-73
2021/11/26 08:14:38;;;;;;;3.50;1.70;;;;;;;;;;6170147;23;20047;-73
2021/11/26 08:17:05;;;;;;;4.30;1.95;;;;;;;;;;6170801;23;20017;-73
2021/11/26 08:19:31;;;;;;;4.40;1.70;;;;;;;;;;6170599;23;20033;-74
2021/11/26 08:21:57;;;;;;;5.28;1.80;;;;;;;;;;6169211;23;20005;-73
2021/11/26 08:24:24;;;;;;;11.55;2.20;;;;;;;;;;6168661;23;20341;-72
2021/11/26 08:26:50;;;;;;;4.93;2.00;;;;;;;;;;6169067;23;20005;-73
2021/11/26 08:29:16;;;;;;;4.63;1.85;;;;;;;;;;6168816;23;20005;-73
2021/11/26 08:31:42;;;;;;;6.97;1.98;;;;;;;;;;6166547;23;20001;-72
2021/11/26 08:34:08;;;;;;;8.43;1.83;;;;;;;;;;6168168;23;20500;-73
2021/11/26 08:36:35;;;;;;;5.38;1.63;;;;;;;;;;6141679;23;20146;-72
2021/11/26 08:39:03;;;;;;;5.35;1.65;;;;;;;;;;6168602;23;20005;-73
2021/11/26 08:41:29;;;;;;;7.10;2.10;;;;;;;;;;6168052;23;20013;-72
2021/11/26 08:43:55;;;;;;;4.03;1.85;;;;;;;;;;6165839;23;20020;-73
2021/11/26 08:46:22;;;;;;;7.47;2.25;;;;;;;;;;6166026;23;20001;-73
2021/11/26 08:48:49;;;;;;;5.55;1.70;;;;;;;;;;6167859;23;20052;-72
2021/11/26 08:51:16;;;;;;;7.68;1.90;;;;;;;;;;6168135;23;20061;-73
2021/11/26 08:53:46;;;;;;;6.50;1.90;;;;;;;;;;6168271;23;20020;-72
2021/11/26 08:56:13;;;;;;;5.90;2.15;;;;;;;;;;6168480;23;20012;-72
2021/11/26 08:58:40;;;;;;;3.70;1.70;;;;;;;;;;6168109;23;20028;-72
2021/11/26 09:01:07;;;;;;;6.60;1.83;;;;;;;;;;6165922;23;20013;-72
2021/11/26 09:03:34;;;;;;;5.78;2.13;;;;;;;;;;6168077;23;20001;-73
2021/11/26 09:06:01;;;;;;;5.75;2.15;;;;;;;;;;6167696;23;20037;-73
2021/11/26 09:08:27;;;;;;;5.00;1.90;;;;;;;;;;6168363;23;20103;-72
2021/11/26 09:10:53;;;;;;;3.63;1.90;;;;;;;;;;6168254;23;20066;-72
2021/11/26 09:13:20;;;;;;;5.60;1.70;;;;;;;;;;6167571;23;20035;-73
2021/11/26 09:15:46;;;;;;;3.53;1.35;;;;;;;;;;6166506;23;20054;-73
2021/11/26 09:18:13;;;;;;;3.38;1.35;;;;;;;;;;6167581;23;20005;-72
2021/11/26 09:20:40;;;;;;;3.92;1.30;;;;;;;;;;6168125;23;20051;-72
2021/11/26 09:23:07;;;;;;;2.45;1.20;;;;;;;;;;6141502;23;20728;-73
2021/11/26 09:25:33;;;;;;;3.85;1.65;;;;;;;;;;6165477;23;20011;-72
2021/11/26 09:27:59;;;;;;;2.38;1.45;;;;;;;;;;6167400;23;20001;-72
2021/11/26 09:30:26;;;;;;;4.03;1.67;;;;;;;;;;6168267;23;20020;-73
2021/11/26 09:32:53;;;;;;;4.85;1.92;;;;;;;;;;6167891;23;20008;-73
2021/11/26 09:35:19;;;;;;;4.15;1.58;;;;;;;;;;6168632;23;20028;-72
2021/11/26 09:37:46;;;;;;;3.25;1.75;;;;;;;;;;6165899;23;20032;-73
2021/11/26 09:40:13;;;;;;;3.30;1.67;;;;;;;;;;6168198;23;20315;-73
2021/11/26 09:42:42;;;;;;;5.32;1.90;;;;;;;;;;6166216;23;20005;-72
2021/11/26 09:45:10;;;;;;;3.83;1.38;;;;;;;;;;6142009;23;20009;-73
2021/11/26 09:47:37;;;;;;;6.55;1.60;;;;;;;;;;6167704;23;20009;-74
2021/11/26 09:50:03;;;;;;;7.72;1.60;;;;;;;;;;6167073;23;20013;-72
2021/11/26 09:52:29;;;;;;;3.78;1.50;;;;;;;;;;6167673;23;20354;-73
2021/11/26 09:54:55;;;;;;;5.85;1.75;;;;;;;;;;6168231;23;20497;-72
2021/11/26 09:57:22;;;;;;;3.20;1.30;;;;;;;;;;6168008;23;20008;-73
2021/11/26 09:59:49;;;;;;;2.40;1.20;;;;;;;;;;6167614;23;20013;-72
2021/11/26 10:02:17;;;;;;;3.10;1.42;;;;;;;;;;6165807;23;20035;-72
2021/11/26 10:04:44;;;;;;;3.92;1.23;;;;;;;;;;6167724;23;19997;-73
2021/11/26 10:07:10;;;;;;;5.97;1.10;;;;;;;;;;6168079;23;20016;-73
2021/11/26 10:09:38;;;;;;;2.65;1.25;;;;;;;;;;6167752;23;20077;-72
2021/11/26 10:12:06;;;;;;;1.90;1.00;;;;;;;;;;6165817;23;20100;-72
2021/11/26 10:14:34;;;;;;;3.03;1.10;;;;;;;;;;6167504;23;20012;-73
2021/11/26 10:17:07;;;;;;;6.68;1.25;;;;;;;;;;6167878;23;20011;-73
2021/11/26 10:19:36;;;;;;;1.85;1.00;;;;;;;;;;6141734;23;20060;-74
2021/11/26 10:22:22;;;;;;;3.97;1.10;;;;;;;;;;6168011;23;20072;-72
2021/11/26 10:25:06;;;;;;;2.25;0.90;;;;;;;;;;6164906;23;20445;-72
2021/11/26 10:27:43;;;;;;;5.05;1.35;;;;;;;;;;6140233;23;20080;-73
2021/11/26 10:30:14;;;;;;;4.75;1.30;;;;;;;;;;6167534;23;20080;-72
2021/11/26 10:32:49;;;;;;;5.80;2.17;;;;;;;;;;6167887;23;20004;-73
2021/11/26 10:35:15;;;;;;;6.30;1.33;;;;;;;;;;6167835;23;20059;-73
2021/11/26 10:37:41;;;;;;;2.58;1.25;;;;;;;;;;6166802;23;20068;-72
2021/11/26 10:40:17;;;;;;;2.85;1.30;;;;;;;;;;6169738;23;20009;-72
2021/11/26 10:42:45;;;;;;;2.53;1.20;;;;;;;;;;6167225;23;20322;-73
2021/11/26 10:45:18;;;;;;;3.90;1.45;;;;;;;;;;6167550;23;20032;-73
2021/11/26 10:50:34;;;;;;;4.00;1.50;;;;;;;;;;6179745;23;20009;-73
2021/11/26 11:00:48;;;;;;;6.35;2.42;;;;;;;;;;6166631;23;20115;-73
2021/11/26 11:03:15;;;;;;;2.17;1.52;;;;;;;;;;6169171;23;20143;-72
2021/11/26 11:05:41;;;;;;;4.57;1.85;;;;;;;;;;6169114;23;20031;-73
2021/11/26 11:08:21;;;;;;;3.55;1.48;;;;;;;;;;6168939;23;20008;-71
2021/11/26 11:10:48;;;;;;;5.47;1.83;;;;;;;;;;6169770;23;20072;-71
2021/11/26 11:13:34;;;;;;;3.85;1.50;;;;;;;;;;6171379;23;20091;-73
2021/11/26 11:16:07;;;;;;;4.00;1.50;;;;;;;;;;6168788;23;20609;-72
2021/11/26 11:18:36;;;;;;;6.53;2.35;;;;;;;;;;6169783;23;20012;-74
2021/11/26 11:21:02;;;;;;;5.38;1.60;;;;;;;;;;6168779;23;20013;-73
2021/11/26 11:23:29;;;;;;;3.03;1.58;;;;;;;;;;6171227;23;20005;-73
2021/11/26 11:25:59;;;;;;;5.43;1.80;;;;;;;;;;6169756;23;20027;-74
2021/11/26 11:28:26;;;;;;;6.10;1.90;;;;;;;;;;6169828;23;20624;-74
2021/11/26 11:30:52;;;;;;;4.88;1.85;;;;;;;;;;6169383;23;20072;-74
2021/11/26 11:33:19;;;;;;;3.65;1.50;;;;;;;;;;6176091;23;20076;-74
2021/11/26 11:35:47;;;;;;;6.43;1.85;;;;;;;;;;6175419;23;20484;-73
2021/11/26 11:38:14;;;;;;;3.80;1.70;;;;;;;;;;6169113;23;20013;-72
2021/11/26 11:40:45;;;;;;;3.97;1.70;;;;;;;;;;6169487;23;20079;-75
2021/11/26 11:43:13;;;;;;;4.35;1.73;;;;;;;;;;6170548;23;20422;-74
2021/11/26 11:45:40;;;;;;;3.20;1.45;;;;;;;;;;6169457;23;20008;-74
2021/11/26 11:48:09;;;;;;;4.88;1.90;;;;;;;;;;6170797;23;20004;-73
2021/11/26 11:50:43;;;;;;;5.00;1.80;;;;;;;;;;6170756;23;20106;-73
2021/11/26 11:53:19;;;;;;;4.60;1.60;;;;;;;;;;6170574;23;20073;-73
2021/11/26 11:55:45;;;;;;;6.28;1.95;;;;;;;;;;6169951;23;20005;-71
2021/11/26 11:58:12;;;;;;;8.45;2.00;;;;;;;;;;6171262;23;20131;-73
2021/11/26 12:00:39;;;;;;;3.00;1.80;;;;;;;;;;6170581;23;20009;-72
2021/11/26 12:03:13;;;;;;;7.20;1.63;;;;;;;;;;6168695;23;20080;-74
2021/11/26 12:05:40;;;;;;;4.28;1.30;;;;;;;;;;6171268;23;20012;-74
2021/11/26 12:08:07;;;;;;;8.75;1.88;;;;;;;;;;6171025;23;20001;-71
2021/11/26 12:10:42;;;;;;;5.22;1.17;;;;;;;;;;6171009;23;20473;-74
2021/11/26 12:13:18;;;;;;;2.80;0.93;;;;;;;;;;6167193;23;20070;-73
2021/11/26 12:15:44;;;;;;;3.45;1.30;;;;;;;;;;6169683;23;20001;-74
2021/11/26 12:18:10;;;;;;;3.35;0.68;;;;;;;;;;6142462;23;20342;-73
2021/11/26 12:20:37;;;;;;;3.33;0.90;;;;;;;;;;6168764;23;20048;-74
2021/11/26 12:23:15;;;;;;;3.03;1.17;;;;;;;;;;6169165;23;20011;-74
2021/11/26 12:25:59;;;;;;;3.25;0.77;;;;;;;;;;6166950;23;20027;-73
2021/11/26 12:28:35;;;;;;;2.35;0.98;;;;;;;;;;6168801;23;20088;-73
2021/11/26 12:31:09;;;;;;;7.03;1.00;;;;;;;;;;6168739;23;20083;-72
2021/11/26 12:33:36;;;;;;;5.35;1.05;;;;;;;;;;6168309;23;20012;-73
2021/11/26 12:36:06;;;;;;;5.60;1.20;;;;;;;;;;6168634;23;20009;-73
2021/11/26 12:38:40;;;;;;;3.08;1.13;;;;;;;;;;6166311;23;20516;-72
2021/11/26 12:41:07;;;;;;;4.20;1.40;;;;;;;;;;6167800;23;20583;-73
2021/11/26 12:43:48;;;;;;;3.42;1.33;;;;;;;;;;6168367;23;20008;-74
2021/11/26 12:46:21;;;;;;;4.60;1.40;;;;;;;;;;6166246;23;20004;-74
2021/11/26 12:51:56;;;;;;;3.97;1.50;;;;;;;;;;6107345;23;20565;-73
2021/11/26 12:54:23;;;;;;;6.95;1.27;;;;;;;;;;6141939;23;20417;-73
2021/11/26 12:56:49;;;;;;;3.42;1.17;;;;;;;;;;6167894;23;20013;-73
2021/11/26 12:59:26;;;;;;;4.70;1.20;;;;;;;;;;6141764;23;20005;-73
2021/11/26 13:01:52;;;;;;;5.47;1.00;;;;;;;;;;6167678;23;20013;-74
2021/11/26 13:04:18;;;;;;;5.07;1.20;;;;;;;;;;6169397;23;20061;-72
2021/11/26 13:06:44;;;;;;;4.10;2.08;;;;;;;;;;6170800;23;20005;-72
2021/11/26 13:09:10;;;;;;;6.57;2.28;;;;;;;;;;6168807;23;20005;-75
2021/11/26 13:11:41;;;;;;;7.43;4.10;;;;;;;;;;6170039;23;20329;-76
2021/11/26 13:14:07;;;;;;;6.85;1.90;;;;;;;;;;6170828;23;20009;-78
2021/11/26 13:16:33;;;;;;;6.55;1.70;;;;;;;;;;6171436;23;20009;-76
2021/11/26 13:19:00;;;;;;;6.53;2.00;;;;;;;;;;6170976;23;20002;-73
2021/11/26 13:21:26;;;;;;;5.82;1.23;;;;;;;;;;6168301;23;20387;-73
2021/11/26 13:23:52;;;;;;;4.55;1.38;;;;;;;;;;6170710;23;20037;-72
2021/11/26 13:26:19;;;;;;;6.03;2.00;;;;;;;;;;6144396;23;20032;-73
2021/11/26 13:28:50;;;;;;;7.03;1.90;;;;;;;;;;6170947;23;20001;-73
2021/11/26 13:31:17;;;;;;;8.38;1.63;;;;;;;;;;6170859;23;20033;-74
2021/11/26 13:33:44;;;;;;;4.25;1.70;;;;;;;;;;6170291;23;20009;-73
2021/11/26 13:36:10;;;;;;;5.05;2.05;;;;;;;;;;6169122;23;20080;-73
2021/11/26 13:38:43;;;;;;;5.22;1.70;;;;;;;;;;6170735;23;20080;-74
2021/11/26 13:41:13;;;;;;;5.00;2.03;;;;;;;;;;6170823;23;20044;-73
2021/11/26 13:43:40;;;;;;;7.18;2.17;;;;;;;;;;6171195;23;20016;-74
2021/11/26 13:46:13;;;;;;;6.68;2.03;;;;;;;;;;6170959;23;20496;-76
2021/11/26 13:48:44;;;;;;;8.82;2.40;;;;;;;;;;6169492;23;20547;-74
2021/11/26 13:51:15;;;;;;;6.85;2.28;;;;;;;;;;6170355;23;20005;-77
2021/11/26 13:53:47;;;;;;;3.47;1.70;;;;;;;;;;6170863;23;20710;-73
2021/11/26 13:56:14;;;;;;;5.57;1.80;;;;;;;;;;6170920;23;20009;-73
2021/11/26 13:58:50;;;;;;;4.20;1.30;;;;;;;;;;6170620;23;20007;-78
2021/11/26 14:01:22;;;;;;;6.47;1.63;;;;;;;;;;6171628;23;20013;-73
2021/11/26 14:03:55;;;;;;;3.05;1.30;;;;;;;;;;6168975;23;20687;-72
2021/11/26 14:06:21;;;;;;;5.72;1.40;;;;;;;;;;6170967;23;20417;-73
2021/11/26 14:08:52;;;;;;;4.93;1.02;;;;;;;;;;6171122;23;20729;-72
2021/11/26 14:11:35;;;;;;;5.47;1.30;;;;;;;;;;6172007;23;20373;-75
2021/11/26 14:14:04;;;;;;;3.65;0.90;;;;;;;;;;6171111;23;20005;-77
2021/11/26 14:16:31;;;;;;;3.47;1.08;;;;;;;;;;6173072;23;19997;-73
2021/11/26 14:18:58;;;;;;;4.30;1.17;;;;;;;;;;6172979;23;20020;-75
2021/11/26 14:21:24;;;;;;;11.48;1.30;;;;;;;;;;6171513;23;20016;-72
2021/11/26 14:24:04;;;;;;;9.38;1.52;;;;;;;;;;6172749;23;20081;-74
2021/11/26 14:26:31;;;;;;;5.22;1.38;;;;;;;;;;6172692;23;20005;-74
2021/11/26 14:29:03;;;;;;;6.85;1.45;;;;;;;;;;6171387;23;20100;-73
2021/11/26 14:31:29;;;;;;;;;;;;;;;;;;6173436;23;20133;-71
2021/11/26 14:34:21;;;;;;;7.22;1.17;;;;;;;;;;6172224;23;19939;-72
2021/11/26 14:36:47;;;;;;;;;;;;;;;;;;6167312;23;20341;-74
2021/11/26 14:39:14;;;;;;;6.88;1.77;;;;;;;;;;6175395;23;19979;-73
2021/11/26 14:41:42;;;;;;;8.45;1.33;;;;;;;;;;6172628;23;20050;-73
2021/11/26 14:44:13;;;;;;;4.38;1.10;;;;;;;;;;6171867;23;20013;-72
2021/11/26 14:47:05;;;;;;;6.47;1.48;;;;;;;;;;6172741;23;20001;-74
2021/11/26 14:49:31;;;;;;;;;;;;;;;;;;6168966;23;20422;-73
2021/11/26 14:52:05;;;;;;;8.75;1.63;;;;;;;;;;6172703;23;19963;-74
2021/11/26 14:54:32;;;;;;;6.05;1.58;;;;;;;;;;6172923;23;20460;-73
2021/11/26 14:56:59;;;;;;;4.47;1.45;;;;;;;;;;6170573;23;20001;-73
2021/11/26 14:59:26;;;;;;;9.13;1.40;;;;;;;;;;6172770;23;19998;-73